Time;durP1;ratioP1;P1;durP2;ratioP2;P2;SDS_P1;SDS_P2;PMS_P1;PMS_P2;Temp;Humidity;BMP_temperature;BMP_pressure;BME280_temperature;BME280_humidity;BME280_pressure;Samples;Min_cycle;Max_cycle;Signal;HPM_P1;HPM_P2
2021/05/14 00:02:08;;;;;;;8.15;4.78;;;14.00;72.70;;;;;;5056012;28;20108;-62
2021/05/14 00:04:34;;;;;;;7.20;4.90;;;14.00;72.70;;;;;;5057783;28;20036;-61
2021/05/14 00:06:59;;;;;;;5.68;4.25;;;14.00;72.70;;;;;;5056500;28;20451;-62
2021/05/14 00:09:25;;;;;;;4.43;4.00;;;13.90;72.70;;;;;;5055807;28;20481;-63
2021/05/14 00:11:50;;;;;;;6.00;4.60;;;13.90;72.80;;;;;;5060275;28;20038;-64
2021/05/14 00:14:16;;;;;;;6.90;4.93;;;13.90;72.90;;;;;;5045045;28;20033;-61
2021/05/14 00:16:41;;;;;;;8.88;4.40;;;13.80;72.80;;;;;;5062996;28;20028;-62
2021/05/14 00:19:07;;;;;;;5.90;4.68;;;13.80;72.90;;;;;;5064747;28;20041;-62
2021/05/14 00:21:33;;;;;;;5.28;4.43;;;13.80;73.00;;;;;;5054967;28;20492;-61
2021/05/14 00:23:58;;;;;;;5.10;3.95;;;13.80;73.10;;;;;;5061096;28;20094;-61
2021/05/14 00:26:24;;;;;;;7.95;4.30;;;13.80;73.20;;;;;;5063254;28;20056;-62
2021/05/14 00:28:49;;;;;;;6.63;5.07;;;13.70;73.20;;;;;;5058982;28;20159;-62
2021/05/14 00:31:16;;;;;;;6.85;4.65;;;13.70;73.30;;;;;;5060261;28;20108;-64
2021/05/14 00:33:41;;;;;;;9.02;4.82;;;13.70;73.40;;;;;;5045888;28;20028;-61
2021/05/14 00:36:07;;;;;;;6.07;4.65;;;13.70;73.40;;;;;;5063175;28;20021;-63
2021/05/14 00:38:32;;;;;;;7.40;5.55;;;13.70;73.40;;;;;;5058321;28;20118;-60
2021/05/14 00:40:58;;;;;;;12.00;5.93;;;13.60;73.40;;;;;;5058868;28;20024;-61
2021/05/14 00:43:23;;;;;;;8.35;5.93;;;13.60;73.40;;;;;;5057802;28;20651;-63
2021/05/14 00:45:49;;;;;;;8.57;5.85;;;13.60;73.60;;;;;;5061301;28;20044;-61
2021/05/14 00:48:15;;;;;;;8.00;5.28;;;13.60;73.60;;;;;;5054988;28;20029;-63
2021/05/14 00:50:40;;;;;;;6.85;5.22;;;13.60;73.70;;;;;;5063301;28;20297;-62
2021/05/14 00:53:06;;;;;;;7.40;5.65;;;13.50;73.60;;;;;;5055479;28;20037;-62
2021/05/14 00:55:31;;;;;;;7.40;5.10;;;13.50;73.60;;;;;;5060048;28;20044;-63
2021/05/14 00:57:57;;;;;;;10.80;4.95;;;13.50;73.60;;;;;;5054144;28;20032;-63
2021/05/14 01:00:22;;;;;;;8.98;5.28;;;13.50;73.60;;;;;;5044088;28;20052;-62
2021/05/14 01:02:51;;;;;;;6.18;5.57;;;13.50;73.70;;;;;;5061152;28;20029;-61
2021/05/14 01:05:17;;;;;;;9.38;5.03;;;13.50;73.80;;;;;;5065307;28;20032;-61
2021/05/14 01:07:43;;;;;;;7.15;4.72;;;13.40;73.70;;;;;;5044332;28;20028;-61
2021/05/14 01:10:09;;;;;;;6.47;4.88;;;13.40;73.90;;;;;;5057783;28;20025;-61
2021/05/14 01:12:34;;;;;;;5.93;4.90;;;13.40;73.90;;;;;;5062140;28;20416;-63
2021/05/14 01:15:00;;;;;;;7.40;4.82;;;13.40;74.00;;;;;;5064182;28;20627;-63
2021/05/14 01:17:25;;;;;;;6.75;5.40;;;13.30;74.00;;;;;;5057747;28;20024;-62
2021/05/14 01:19:51;;;;;;;6.75;5.25;;;13.30;74.00;;;;;;5063440;28;20091;-63
2021/05/14 01:22:18;;;;;;;7.90;5.15;;;13.20;74.00;;;;;;5057949;28;20111;-61
2021/05/14 01:24:44;;;;;;;7.30;5.18;;;13.30;74.20;;;;;;5056725;28;20024;-63
2021/05/14 01:27:10;;;;;;;7.90;5.22;;;13.30;74.20;;;;;;5058910;28;20039;-61
2021/05/14 01:29:35;;;;;;;6.97;4.90;;;13.20;74.30;;;;;;5059848;28;20032;-62
2021/05/14 01:32:01;;;;;;;6.85;5.18;;;13.20;74.30;;;;;;5059577;28;20041;-61
2021/05/14 01:34:27;;;;;;;7.00;4.85;;;13.20;74.30;;;;;;5060835;28;20063;-61
2021/05/14 01:36:52;;;;;;;7.60;5.22;;;13.20;74.50;;;;;;5057167;28;20493;-61
2021/05/14 01:39:22;;;;;;;5.43;4.70;;;13.10;74.50;;;;;;5063969;28;20040;-63
2021/05/14 01:41:48;;;;;;;6.18;4.43;;;13.10;74.50;;;;;;5060194;28;20028;-62
2021/05/14 01:44:13;;;;;;;6.97;4.43;;;13.10;74.50;;;;;;5059995;28;20039;-61
2021/05/14 01:46:39;;;;;;;5.85;4.20;;;13.10;74.60;;;;;;5047744;28;20032;-62
2021/05/14 01:49:04;;;;;;;6.78;4.50;;;13.00;74.60;;;;;;5061737;28;20033;-63
2021/05/14 01:51:30;;;;;;;5.88;4.30;;;13.00;74.60;;;;;;5059626;28;20032;-62
2021/05/14 01:53:55;;;;;;;8.13;4.18;;;13.00;74.70;;;;;;5059267;28;20055;-64
2021/05/14 01:56:21;;;;;;;5.40;4.05;;;13.00;74.70;;;;;;5062216;28;20041;-62
2021/05/14 01:58:50;;;;;;;6.82;4.43;;;13.00;74.70;;;;;;5057692;28;20103;-62
2021/05/14 02:01:16;;;;;;;8.80;4.47;;;13.00;74.80;;;;;;5062048;28;20036;-61
2021/05/14 02:03:42;;;;;;;5.47;4.18;;;12.90;74.70;;;;;;5061606;28;20073;-63
2021/05/14 02:06:07;;;;;;;5.97;4.32;;;12.90;74.80;;;;;;5057005;28;20072;-63
2021/05/14 02:08:33;;;;;;;5.75;3.78;;;12.90;74.90;;;;;;5058264;28;20012;-62
2021/05/14 02:10:58;;;;;;;6.43;4.40;;;12.90;75.00;;;;;;5058297;28;20044;-61
2021/05/14 02:13:24;;;;;;;4.32;3.58;;;12.90;75.00;;;;;;5059930;28;20349;-63
2021/05/14 02:15:49;;;;;;;6.30;4.32;;;12.90;75.00;;;;;;5060946;28;20032;-62
2021/05/14 02:18:15;;;;;;;4.55;3.72;;;12.80;75.10;;;;;;5055899;28;20039;-62
2021/05/14 02:20:41;;;;;;;7.57;3.67;;;12.80;75.10;;;;;;5056288;28;20048;-61
2021/05/14 02:23:06;;;;;;;6.13;3.58;;;12.80;75.20;;;;;;5056207;28;20295;-61
2021/05/14 02:25:32;;;;;;;4.82;3.40;;;12.80;75.20;;;;;;5041000;28;20031;-62
2021/05/14 02:27:57;;;;;;;3.58;3.20;;;12.80;75.20;;;;;;5063932;28;20025;-64
2021/05/14 02:30:23;;;;;;;4.38;3.25;;;12.80;75.30;;;;;;5061624;28;20107;-64
2021/05/14 02:32:48;;;;;;;5.20;3.85;;;12.80;75.30;;;;;;5059241;28;20040;-62
2021/05/14 02:35:14;;;;;;;7.32;3.35;;;12.70;75.30;;;;;;5058297;28;20044;-63
2021/05/14 02:37:40;;;;;;;5.05;3.08;;;12.70;75.40;;;;;;5057964;28;20024;-61
2021/05/14 02:40:06;;;;;;;6.15;3.35;;;12.70;75.40;;;;;;5059456;28;20044;-62
2021/05/14 02:42:32;;;;;;;4.40;3.17;;;12.60;75.50;;;;;;5045253;28;20137;-62
2021/05/14 02:44:57;;;;;;;3.85;3.20;;;12.70;75.40;;;;;;5061452;28;20051;-62
2021/05/14 02:47:23;;;;;;;7.43;3.30;;;12.70;75.40;;;;;;5058126;28;20036;-63
2021/05/14 02:49:48;;;;;;;3.88;3.10;;;12.60;75.40;;;;;;5064737;28;20033;-62
2021/05/14 02:52:14;;;;;;;5.65;2.78;;;12.60;75.50;;;;;;5059628;28;20048;-63
2021/05/14 02:54:39;;;;;;;3.95;3.10;;;12.60;75.50;;;;;;5064780;28;20051;-62
2021/05/14 02:57:05;;;;;;;8.50;3.20;;;12.60;75.50;;;;;;5058406;28;20039;-62
2021/05/14 02:59:31;;;;;;;6.15;3.63;;;12.60;75.60;;;;;;5050189;28;20476;-63
2021/05/14 03:01:57;;;;;;;6.85;3.10;;;12.50;75.70;;;;;;5061751;28;20028;-62
2021/05/14 03:04:22;;;;;;;3.75;2.78;;;12.50;75.70;;;;;;5054509;28;20032;-61
2021/05/14 03:06:48;;;;;;;5.38;3.05;;;12.50;75.70;;;;;;5056163;28;20076;-63
2021/05/14 03:09:13;;;;;;;5.88;3.28;;;12.50;75.70;;;;;;5059954;28;20491;-60
2021/05/14 03:11:39;;;;;;;5.68;3.50;;;12.50;75.70;;;;;;5054260;28;20045;-62
2021/05/14 03:14:06;;;;;;;5.68;3.45;;;12.40;75.70;;;;;;5059436;28;20035;-63
2021/05/14 03:16:32;;;;;;;4.80;3.42;;;12.50;75.80;;;;;;5055012;28;20025;-60
2021/05/14 03:18:58;;;;;;;5.07;2.88;;;12.50;75.80;;;;;;5060959;28;20039;-60
2021/05/14 03:21:23;;;;;;;4.90;3.22;;;12.40;75.80;;;;;;5053260;28;20387;-62
2021/05/14 03:23:49;;;;;;;4.40;3.00;;;12.40;76.00;;;;;;5059340;28;20482;-62
2021/05/14 03:26:14;;;;;;;5.00;3.30;;;12.40;76.00;;;;;;5055197;28;20033;-62
2021/05/14 03:28:40;;;;;;;5.70;2.83;;;12.40;76.10;;;;;;5062691;28;20032;-62
2021/05/14 03:31:05;;;;;;;4.78;2.90;;;12.40;76.10;;;;;;5052894;28;20036;-62
2021/05/14 03:33:31;;;;;;;3.72;2.95;;;12.30;76.10;;;;;;5062907;28;20035;-63
2021/05/14 03:35:56;;;;;;;7.38;3.45;;;12.30;76.20;;;;;;5056610;28;20692;-62
2021/05/14 03:38:28;;;;;;;3.80;2.80;;;12.30;76.30;;;;;;5060898;28;20522;-62
2021/05/14 03:40:53;;;;;;;4.05;2.53;;;12.20;76.30;;;;;;5053545;28;20025;-63
2021/05/14 03:43:19;;;;;;;4.07;3.10;;;12.20;76.30;;;;;;5050455;28;20580;-61
2021/05/14 03:45:44;;;;;;;4.72;2.72;;;12.20;76.30;;;;;;5059667;28;20519;-61
2021/05/14 03:48:19;;;;;;;3.63;2.80;;;12.20;76.50;;;;;;5053574;28;20039;-63
2021/05/14 03:50:50;;;;;;;3.08;2.67;;;12.20;76.60;;;;;;5054903;28;20045;-61
2021/05/14 03:53:16;;;;;;;3.50;2.83;;;12.10;76.60;;;;;;5059150;28;20155;-61
2021/05/14 03:55:42;;;;;;;5.60;2.40;;;12.10;76.60;;;;;;5056048;28;20037;-62
2021/05/14 03:58:07;;;;;;;7.57;2.75;;;12.10;76.70;;;;;;5058951;28;20031;-63
2021/05/14 04:00:33;;;;;;;5.60;2.40;;;12.10;76.70;;;;;;5057539;28;20074;-63
2021/05/14 04:02:58;;;;;;;4.55;2.63;;;12.00;76.70;;;;;;5052897;28;20679;-62
2021/05/14 04:05:24;;;;;;;97.97;12.45;;;12.00;76.70;;;;;;5043395;28;20039;-63
2021/05/14 04:07:49;;;;;;;51.65;7.90;;;12.00;76.80;;;;;;5057752;28;20044;-62
2021/05/14 04:11:05;;;;;;;35.47;8.20;;;12.00;76.70;;;;;;5058513;28;20025;-62
2021/05/14 04:15:59;;;;;;;34.63;5.70;;;12.00;76.80;;;;;;5057725;28;20044;-60
2021/05/14 04:18:25;;;;;;;40.65;5.88;;;12.00;76.80;;;;;;5037405;28;20020;-63
2021/05/14 04:20:50;;;;;;;45.42;6.05;;;12.00;76.90;;;;;;5059645;28;20404;-62
2021/05/14 04:23:16;;;;;;;46.55;5.50;;;12.00;76.90;;;;;;5058356;28;20028;-63
2021/05/14 04:25:41;;;;;;;49.20;6.32;;;12.00;76.80;;;;;;5058669;28;20673;-61
2021/05/14 04:28:07;;;;;;;44.38;6.65;;;12.00;76.90;;;;;;5060440;28;20016;-62
2021/05/14 04:30:32;;;;;;;36.38;6.93;;;11.90;76.80;;;;;;5059021;28;20049;-61
2021/05/14 04:32:59;;;;;;;55.25;7.05;;;11.90;76.80;;;;;;5053751;28;20025;-62
2021/05/14 04:35:26;;;;;;;61.17;7.47;;;11.90;76.90;;;;;;5055966;28;20029;-62
2021/05/14 04:37:52;;;;;;;320.15;25.63;;;11.90;76.90;;;;;;5054044;28;20033;-63
2021/05/14 04:40:18;;;;;;;309.63;23.15;;;11.90;77.00;;;;;;5051099;28;20051;-62
2021/05/14 04:42:43;;;;;;;353.42;24.80;;;11.90;77.20;;;;;;5070238;28;20065;-61
2021/05/14 04:45:09;;;;;;;214.63;16.92;;;11.80;77.10;;;;;;5057285;28;20562;-62
2021/05/14 04:47:35;;;;;;;272.90;23.08;;;11.90;77.20;;;;;;5056423;28;20542;-63
2021/05/14 04:50:00;;;;;;;312.75;23.55;;;11.90;77.10;;;;;;5055574;28;20032;-62
2021/05/14 04:52:28;;;;;;;300.17;23.95;;;11.90;77.20;;;;;;5058928;28;20028;-63
2021/05/14 04:54:55;;;;;;;167.63;13.27;;;11.90;77.10;;;;;;5053183;28;20036;-62
2021/05/14 04:57:20;;;;;;;204.80;18.13;;;11.90;77.10;;;;;;5056337;28;20032;-62
2021/05/14 04:59:46;;;;;;;176.43;14.20;;;11.80;77.10;;;;;;5063124;28;20048;-61
2021/05/14 05:02:12;;;;;;;176.75;14.75;;;11.80;77.20;;;;;;5070730;28;20039;-62
2021/05/14 05:04:37;;;;;;;202.68;15.65;;;11.80;77.40;;;;;;5060558;28;20496;-62
2021/05/14 05:07:08;;;;;;;165.15;14.73;;;11.80;77.50;;;;;;5057214;28;20081;-61
2021/05/14 05:09:34;;;;;;;146.35;13.98;;;11.80;77.50;;;;;;5053691;28;20037;-61
2021/05/14 05:12:00;;;;;;;145.18;14.18;;;11.80;77.50;;;;;;5053894;28;20040;-61
2021/05/14 05:14:25;;;;;;;135.90;13.93;;;11.80;77.50;;;;;;5059854;28;20028;-62
2021/05/14 05:16:51;;;;;;;136.00;13.82;;;11.80;77.60;;;;;;5055217;28;20021;-61
2021/05/14 05:19:17;;;;;;;137.60;12.15;;;11.80;77.70;;;;;;5063153;28;20127;-63
2021/05/14 05:21:42;;;;;;;122.25;12.48;;;11.80;77.70;;;;;;5057772;28;20135;-61
2021/05/14 05:24:08;;;;;;;110.00;10.93;;;11.80;77.70;;;;;;5057796;28;20033;-62
2021/05/14 05:26:34;;;;;;;120.93;13.57;;;11.80;77.80;;;;;;5059160;28;20636;-63
2021/05/14 05:28:59;;;;;;;119.78;11.30;;;11.80;77.80;;;;;;5058085;28;20032;-62
2021/05/14 05:31:25;;;;;;;142.23;11.77;;;11.80;77.80;;;;;;5060674;28;20029;-62
2021/05/14 05:33:50;;;;;;;120.18;10.88;;;11.80;77.90;;;;;;5062891;28;20025;-62
2021/05/14 05:36:16;;;;;;;108.60;12.55;;;11.80;77.80;;;;;;5059610;28;20392;-63
2021/05/14 05:38:42;;;;;;;113.20;12.27;;;11.80;77.80;;;;;;5062650;28;20055;-62
2021/05/14 05:41:07;;;;;;;114.47;10.75;;;11.80;77.90;;;;;;5060107;28;20040;-63
2021/05/14 05:43:33;;;;;;;94.30;9.23;;;11.80;78.00;;;;;;5057365;28;20032;-63
2021/05/14 05:45:58;;;;;;;83.35;9.82;;;11.80;78.00;;;;;;5058372;28;20425;-63
2021/05/14 05:48:24;;;;;;;104.18;10.27;;;11.80;78.00;;;;;;5050218;28;20049;-61
2021/05/14 05:50:50;;;;;;;95.43;9.75;;;11.80;78.10;;;;;;5052309;28;20048;-61
2021/05/14 05:53:16;;;;;;;82.90;9.13;;;11.80;78.10;;;;;;5053866;28;20033;-63
2021/05/14 05:55:41;;;;;;;97.45;9.90;;;11.80;78.20;;;;;;5058510;28;20050;-61
2021/05/14 05:58:10;;;;;;;73.97;9.18;;;11.80;78.10;;;;;;5064164;28;20033;-61
2021/05/14 06:00:36;;;;;;;76.47;8.38;;;11.80;78.20;;;;;;5052198;28;20072;-63
2021/05/14 06:03:02;;;;;;;68.45;8.82;;;11.70;78.30;;;;;;5053268;28;20055;-61
2021/05/14 06:05:29;;;;;;;87.30;9.93;;;11.80;78.70;;;;;;5060671;28;20017;-61
2021/05/14 06:07:54;;;;;;;68.18;8.65;;;11.80;78.80;;;;;;5058587;28;20074;-60
2021/05/14 06:10:20;;;;;;;51.55;6.18;;;11.80;79.00;;;;;;5057731;28;20021;-63
2021/05/14 06:12:45;;;;;;;43.60;6.10;;;11.70;79.60;;;;;;5057641;28;20056;-64
2021/05/14 06:15:11;;;;;;;60.30;5.88;;;11.70;80.60;;;;;;5061003;28;20510;-60
2021/05/14 06:17:40;;;;;;;44.63;5.68;;;11.70;80.60;;;;;;5057516;28;20086;-63
2021/05/14 06:20:10;;;;;;;40.60;5.85;;;11.60;80.90;;;;;;5059439;28;20033;-61
2021/05/14 06:22:35;;;;;;;29.48;3.72;;;11.60;80.80;;;;;;5043988;28;20040;-60
2021/05/14 06:25:01;;;;;;;48.30;4.18;;;11.60;81.40;;;;;;5057111;28;20032;-61
2021/05/14 06:27:27;;;;;;;18.00;3.20;;;11.60;81.60;;;;;;5057278;28;20037;-61
2021/05/14 06:29:53;;;;;;;20.85;2.97;;;11.60;82.00;;;;;;5043827;28;20477;-61
2021/05/14 06:32:18;;;;;;;19.25;3.00;;;11.60;82.60;;;;;;5059158;28;20488;-61
2021/05/14 06:34:45;;;;;;;15.93;3.15;;;11.60;83.00;;;;;;5059501;28;20068;-60
2021/05/14 06:37:10;;;;;;;10.93;2.58;;;11.60;83.20;;;;;;5061710;28;20028;-61
2021/05/14 06:39:36;;;;;;;18.58;2.55;;;11.60;83.50;;;;;;5062238;28;20078;-63
2021/05/14 06:42:01;;;;;;;47.58;5.03;;;11.50;83.30;;;;;;5058498;28;20468;-61
2021/05/14 06:44:28;;;;;;;131.30;13.48;;;11.50;83.40;;;;;;5059439;28;20064;-61
2021/05/14 06:46:54;;;;;;;55.15;6.47;;;11.60;83.60;;;;;;5060749;28;20035;-61
2021/05/14 06:49:19;;;;;;;18.13;2.67;;;11.60;83.70;;;;;;5059361;28;20029;-62
2021/05/14 06:51:45;;;;;;;16.35;2.42;;;11.60;83.60;;;;;;5059445;28;20033;-61
2021/05/14 06:54:10;;;;;;;8.77;2.50;;;11.70;83.40;;;;;;5056728;28;20044;-61
2021/05/14 06:56:36;;;;;;;28.60;2.67;;;11.60;83.20;;;;;;5059311;28;20033;-61
2021/05/14 06:59:02;;;;;;;8.52;1.70;;;11.60;83.00;;;;;;5062059;28;20024;-62
2021/05/14 07:01:27;;;;;;;9.80;2.38;;;11.70;82.90;;;;;;5055734;28;20085;-62
2021/05/14 07:03:53;;;;;;;32.83;2.80;;;11.70;82.70;;;;;;5046036;28;21329;-61
2021/05/14 07:06:19;;;;;;;63.53;4.45;;;11.70;82.90;;;;;;5058001;28;20452;-62
2021/05/14 07:08:45;;;;;;;43.10;4.72;;;11.70;82.70;;;;;;5059288;28;20037;-61
2021/05/14 07:11:10;;;;;;;23.63;3.10;;;11.70;82.60;;;;;;5056196;28;20028;-61
2021/05/14 07:13:36;;;;;;;22.65;3.08;;;11.70;82.60;;;;;;5058987;28;20029;-62
2021/05/14 07:16:01;;;;;;;32.47;3.58;;;11.70;82.80;;;;;;5058912;28;20028;-62
2021/05/14 07:18:27;;;;;;;29.48;3.50;;;11.80;83.00;;;;;;5061452;28;20062;-64
2021/05/14 07:20:53;;;;;;;28.48;3.33;;;11.80;82.60;;;;;;5057818;28;20040;-64
2021/05/14 07:23:18;;;;;;;56.33;5.75;;;11.70;82.30;;;;;;5055841;28;20388;-63
2021/05/14 07:25:44;;;;;;;35.08;5.07;;;11.80;82.20;;;;;;5056571;28;20029;-62
2021/05/14 07:28:09;;;;;;;21.42;4.43;;;11.80;82.60;;;;;;5053457;28;20433;-64
2021/05/14 07:30:35;;;;;;;45.40;4.50;;;11.80;82.50;;;;;;5051120;28;20560;-63
2021/05/14 07:33:00;;;;;;;40.78;4.68;;;11.80;82.80;;;;;;5059156;28;20571;-61
2021/05/14 07:35:26;;;;;;;32.92;3.90;;;11.90;82.50;;;;;;5062087;28;20529;-63
2021/05/14 07:37:51;;;;;;;39.92;4.50;;;11.90;82.50;;;;;;5059104;28;20028;-62
2021/05/14 07:40:17;;;;;;;53.60;5.78;;;11.90;82.60;;;;;;5057033;28;20041;-64
2021/05/14 07:42:43;;;;;;;53.85;5.65;;;11.90;82.60;;;;;;5059839;28;20064;-62
2021/05/14 07:45:08;;;;;;;49.45;6.07;;;11.90;82.50;;;;;;5056910;28;20096;-62
2021/05/14 07:47:34;;;;;;;72.72;9.65;;;11.90;82.50;;;;;;5052724;28;20516;-62
2021/05/14 07:50:01;;;;;;;72.97;7.43;;;12.00;82.60;;;;;;5057009;28;20418;-63
2021/05/14 07:52:27;;;;;;;120.95;12.60;;;12.00;82.50;;;;;;5053910;28;20364;-64
2021/05/14 07:54:52;;;;;;;55.97;6.05;;;12.00;82.60;;;;;;5059069;28;20036;-64
2021/05/14 07:57:18;;;;;;;50.70;6.28;;;12.10;82.70;;;;;;5051034;28;20029;-63
2021/05/14 07:59:43;;;;;;;89.82;10.07;;;12.10;82.40;;;;;;5055175;28;20051;-61
2021/05/14 08:02:09;;;;;;;228.90;17.65;;;12.10;82.40;;;;;;5053648;28;20055;-62
2021/05/14 08:04:34;;;;;;;61.70;6.68;;;12.10;82.40;;;;;;5057322;28;20503;-64
2021/05/14 08:07:00;;;;;;;56.90;5.50;;;12.10;82.20;;;;;;5053264;28;20112;-63
2021/05/14 08:09:25;;;;;;;48.38;5.57;;;12.10;82.10;;;;;;5055390;28;20028;-62
2021/05/14 08:11:51;;;;;;;72.55;7.28;;;12.20;82.00;;;;;;5058325;28;20171;-64
2021/05/14 08:14:17;;;;;;;60.25;5.72;;;12.20;82.00;;;;;;5053476;28;20016;-62
2021/05/14 08:16:43;;;;;;;99.15;10.25;;;12.20;82.10;;;;;;5041577;28;20032;-63
2021/05/14 08:19:11;;;;;;;45.67;5.93;;;12.20;81.80;;;;;;5059414;28;20038;-63
2021/05/14 08:21:39;;;;;;;64.53;6.75;;;12.20;81.70;;;;;;5051710;28;20028;-63
2021/05/14 08:24:05;;;;;;;47.72;5.85;;;12.30;81.60;;;;;;5059382;28;20028;-62
2021/05/14 08:26:31;;;;;;;51.45;5.43;;;12.30;81.70;;;;;;5053369;28;20117;-62
2021/05/14 08:28:56;;;;;;;73.18;6.72;;;12.30;81.40;;;;;;5043778;28;20032;-62
2021/05/14 08:31:22;;;;;;;60.67;7.25;;;12.30;81.50;;;;;;5059055;28;20034;-61
2021/05/14 08:33:47;;;;;;;48.10;6.13;;;12.30;81.50;;;;;;5064842;28;20462;-64
2021/05/14 08:36:13;;;;;;;45.95;5.70;;;12.40;81.40;;;;;;5061558;28;20828;-62
2021/05/14 08:38:38;;;;;;;45.40;5.55;;;12.50;81.50;;;;;;5063967;28;20105;-62
2021/05/14 08:41:07;;;;;;;62.05;6.35;;;12.50;81.50;;;;;;5057173;28;20028;-63
2021/05/14 08:43:33;;;;;;;54.50;7.20;;;12.50;81.40;;;;;;5053895;28;20408;-62
2021/05/14 08:46:01;;;;;;;51.80;6.85;;;12.60;81.40;;;;;;5059511;28;20025;-64
2021/05/14 08:48:26;;;;;;;60.97;6.55;;;12.60;81.50;;;;;;5061979;28;20039;-63
2021/05/14 08:50:52;;;;;;;59.40;6.78;;;12.70;81.40;;;;;;5054823;28;20028;-62
2021/05/14 08:53:17;;;;;;;59.15;6.82;;;12.70;81.40;;;;;;5042106;28;20123;-63
2021/05/14 08:55:43;;;;;;;79.88;7.85;;;12.80;81.40;;;;;;5044392;28;20115;-63
2021/05/14 08:58:08;;;;;;;107.53;10.48;;;12.80;81.30;;;;;;5060768;28;20029;-63
2021/05/14 09:00:34;;;;;;;58.08;6.63;;;12.80;81.30;;;;;;5060704;28;20382;-61
2021/05/14 09:02:59;;;;;;;61.45;7.00;;;12.90;81.00;;;;;;5052910;28;20032;-63
2021/05/14 09:05:35;;;;;;;72.68;6.90;;;12.90;81.00;;;;;;5061981;28;20037;-64
2021/05/14 09:08:01;;;;;;;57.22;6.22;;;13.00;81.10;;;;;;5061193;28;20048;-62
2021/05/14 09:10:27;;;;;;;73.75;7.90;;;13.00;81.10;;;;;;5063774;28;20032;-64
2021/05/14 09:12:53;;;;;;;83.40;7.68;;;13.00;81.00;;;;;;5056199;28;20486;-64
2021/05/14 09:15:26;;;;;;;41.08;5.88;;;13.10;81.50;;;;;;5061343;28;20028;-64
2021/05/14 09:18:17;;;;;;;49.10;6.30;;;13.10;80.00;;;;;;5054852;28;20036;-62
2021/05/14 09:20:47;;;;;;;76.60;7.03;;;13.20;79.90;;;;;;5057577;28;20122;-62
2021/05/14 09:23:16;;;;;;;38.08;4.55;;;13.20;79.90;;;;;;5061379;28;20143;-64
2021/05/14 09:25:55;;;;;;;44.70;5.50;;;13.20;79.20;;;;;;5061556;28;20125;-65
2021/05/14 09:28:47;;;;;;;49.03;5.43;;;13.30;79.10;;;;;;5057018;28;20119;-63
2021/05/14 09:31:14;;;;;;;48.45;4.72;;;13.30;78.10;;;;;;5054433;28;20467;-61
2021/05/14 09:33:53;;;;;;;42.03;4.93;;;13.40;78.10;;;;;;5058888;28;20032;-61
2021/05/14 09:36:24;;;;;;;49.70;5.15;;;13.40;78.10;;;;;;5059135;28;20490;-60
2021/05/14 09:38:59;;;;;;;52.78;5.32;;;13.50;78.30;;;;;;5058593;28;20111;-61
2021/05/14 09:41:35;;;;;;;47.83;5.63;;;13.50;77.80;;;;;;5045350;28;20027;-63
2021/05/14 09:44:03;;;;;;;47.08;5.65;;;13.50;77.90;;;;;;5057329;28;20029;-64
2021/05/14 09:46:30;;;;;;;59.03;5.75;;;13.50;77.60;;;;;;5059116;28;20025;-64
2021/05/14 09:49:01;;;;;;;55.55;6.95;;;13.60;77.60;;;;;;5059425;28;20430;-63
2021/05/14 09:51:26;;;;;;;69.00;6.78;;;13.60;77.60;;;;;;5053227;28;20090;-64
2021/05/14 09:53:52;;;;;;;55.67;7.47;;;13.70;77.50;;;;;;5052998;28;20036;-63
2021/05/14 09:56:33;;;;;;;75.25;7.93;;;13.70;77.60;;;;;;5059985;28;20025;-63
2021/05/14 09:59:00;;;;;;;41.30;5.68;;;13.60;77.10;;;;;;5044299;28;20469;-62
2021/05/14 10:01:26;;;;;;;58.10;6.65;;;13.90;76.90;;;;;;5061264;28;20364;-64
2021/05/14 10:03:52;;;;;;;58.35;5.63;;;13.90;76.80;;;;;;5055362;28;20043;-61
2021/05/14 10:06:19;;;;;;;76.88;7.32;;;14.00;76.40;;;;;;5060946;28;20024;-62
2021/05/14 10:08:50;;;;;;;63.78;7.50;;;14.00;76.30;;;;;;5058995;28;20898;-60
2021/05/14 10:11:16;;;;;;;59.00;6.45;;;14.00;76.10;;;;;;5044220;28;20056;-61
2021/05/14 10:13:41;;;;;;;65.20;7.63;;;14.10;75.80;;;;;;5035927;28;20029;-61
2021/05/14 10:16:07;;;;;;;57.95;8.15;;;14.20;75.60;;;;;;5057548;28;20028;-62
2021/05/14 10:18:35;;;;;;;63.60;7.85;;;14.20;75.40;;;;;;5060561;28;20048;-63
2021/05/14 10:21:05;;;;;;;69.93;7.95;;;14.30;74.80;;;;;;5057835;28;20103;-63
2021/05/14 10:23:31;;;;;;;59.08;6.60;;;14.40;74.50;;;;;;5055208;28;20498;-64
2021/05/14 10:26:05;;;;;;;67.95;7.57;;;14.40;74.10;;;;;;5043405;28;20123;-62
2021/05/14 10:28:30;;;;;;;67.28;7.45;;;14.40;74.10;;;;;;5061230;28;20119;-61
2021/05/14 10:31:07;;;;;;;65.50;6.28;;;14.40;73.90;;;;;;5044295;28;20119;-61
2021/05/14 10:33:45;;;;;;;64.10;7.32;;;14.50;73.50;;;;;;5061529;28;20475;-60
2021/05/14 10:36:20;;;;;;;71.63;7.68;;;14.60;73.80;;;;;;5056968;28;20036;-60
2021/05/14 10:39:00;;;;;;;69.82;7.85;;;14.60;72.80;;;;;;5055546;28;20512;-60
2021/05/14 10:41:26;;;;;;;67.18;7.82;;;14.70;72.90;;;;;;5057308;28;20037;-59
2021/05/14 10:44:06;;;;;;;57.63;7.07;;;14.70;72.20;;;;;;5054728;28;20050;-61
2021/05/14 10:46:32;;;;;;;56.40;7.03;;;14.80;71.90;;;;;;5058905;28;20033;-62
2021/05/14 10:49:00;;;;;;;85.38;7.78;;;14.80;71.50;;;;;;5052098;28;20037;-62
2021/05/14 10:51:50;;;;;;;69.13;7.75;;;14.60;70.50;;;;;;5055398;28;20422;-59
2021/05/14 10:54:38;;;;;;;101.28;8.95;;;15.00;70.20;;;;;;5056869;28;20223;-60
2021/05/14 10:57:03;;;;;;;78.32;9.52;;;15.00;69.60;;;;;;5054583;28;20020;-61
2021/05/14 10:59:30;;;;;;;80.70;9.98;;;15.10;69.00;;;;;;5060567;28;20044;-63
2021/05/14 11:01:56;;;;;;;66.15;7.95;;;15.20;67.60;;;;;;5052678;28;20046;-60
2021/05/14 11:04:37;;;;;;;82.65;9.23;;;15.30;67.50;;;;;;5056966;28;20024;-63
2021/05/14 11:07:03;;;;;;;74.38;7.35;;;15.40;67.60;;;;;;5057381;28;20128;-62
2021/05/14 11:09:28;;;;;;;72.63;7.00;;;15.40;66.40;;;;;;5056143;28;20178;-60
2021/05/14 11:11:57;;;;;;;84.47;7.90;;;15.40;66.30;;;;;;5061525;28;20021;-61
2021/05/14 11:14:23;;;;;;;54.97;6.93;;;15.50;66.60;;;;;;5052016;28;20020;-60
2021/05/14 11:16:52;;;;;;;58.97;7.25;;;15.50;66.10;;;;;;5058129;28;20029;-62
2021/05/14 11:19:28;;;;;;;54.85;5.72;;;15.50;65.50;;;;;;5055049;28;20129;-60
2021/05/14 11:22:17;;;;;;;50.17;6.10;;;15.60;65.40;;;;;;5059578;28;20033;-64
2021/05/14 11:25:06;;;;;;;43.10;5.03;;;15.70;64.80;;;;;;5046016;28;20056;-61
2021/05/14 11:27:33;;;;;;;45.35;6.13;;;15.80;64.00;;;;;;5062185;28;20031;-61
2021/05/14 11:30:00;;;;;;;44.55;4.28;;;15.90;63.70;;;;;;5052977;28;20033;-61
2021/05/14 11:32:33;;;;;;;30.38;4.63;;;16.00;63.30;;;;;;5053459;28;20191;-62
2021/05/14 11:35:07;;;;;;;46.60;5.30;;;16.10;63.20;;;;;;5058126;28;20464;-62
2021/05/14 11:40:27;;;;;;;46.30;4.97;;;16.30;61.80;;;;;;5056846;28;20384;-60
2021/05/14 11:42:56;;;;;;;;;;;16.40;60.90;;;;;;5048891;28;20067;-62
2021/05/14 11:45:22;;;;;;;39.88;4.53;;;16.50;60.40;;;;;;5049876;28;20523;-62
2021/05/14 11:47:50;;;;;;;41.95;4.25;;;16.60;59.50;;;;;;5056643;28;20028;-60
2021/05/14 11:50:25;;;;;;;33.38;4.57;;;16.70;59.10;;;;;;5055265;28;20290;-61
2021/05/14 11:52:50;;;;;;;44.53;4.50;;;16.70;58.80;;;;;;5053643;28;20024;-61
2021/05/14 11:55:16;;;;;;;25.02;3.17;;;16.80;58.50;;;;;;5052501;28;20025;-62
2021/05/14 11:57:47;;;;;;;59.05;5.68;;;16.90;58.30;;;;;;5035320;28;20046;-60
2021/05/14 12:00:13;;;;;;;44.97;4.32;;;16.90;58.40;;;;;;5058699;28;20025;-60
2021/05/14 12:02:44;;;;;;;31.70;4.20;;;16.90;57.70;;;;;;5056362;28;20029;-62
2021/05/14 12:05:11;;;;;;;35.05;4.63;;;17.20;56.70;;;;;;5054733;28;20442;-61
2021/05/14 12:07:37;;;;;;;21.58;2.97;;;17.20;56.70;;;;;;5052747;28;20534;-61
2021/05/14 12:10:07;;;;;;;35.90;2.78;;;17.30;56.20;;;;;;5056359;28;20215;-63
2021/05/14 12:12:33;;;;;;;23.70;3.33;;;17.40;55.80;;;;;;5059068;28;20661;-61
2021/05/14 12:15:22;;;;;;;22.55;2.75;;;17.40;54.40;;;;;;5056407;28;20035;-61
2021/05/14 12:17:51;;;;;;;20.35;2.65;;;17.50;54.80;;;;;;5058177;28;20416;-60
2021/05/14 12:20:23;;;;;;;23.25;2.55;;;17.50;54.30;;;;;;5055826;28;20102;-63
2021/05/14 12:22:49;;;;;;;21.77;2.40;;;17.50;54.20;;;;;;5062548;28;20119;-61
2021/05/14 12:25:15;;;;;;;20.33;3.42;;;17.60;53.90;;;;;;5058289;28;20021;-63
2021/05/14 12:27:41;;;;;;;24.20;2.72;;;17.70;53.50;;;;;;5039384;28;20106;-63
2021/05/14 12:30:09;;;;;;;19.27;2.50;;;17.80;53.80;;;;;;5063948;28;20467;-61
2021/05/14 12:32:35;;;;;;;22.55;2.38;;;17.80;53.60;;;;;;5059968;28;20044;-65
2021/05/14 12:35:01;;;;;;;34.38;3.45;;;17.90;53.40;;;;;;5060838;28;20057;-63
2021/05/14 12:37:26;;;;;;;16.48;1.95;;;18.00;53.30;;;;;;5059574;28;20024;-60
2021/05/14 12:39:52;;;;;;;46.95;4.03;;;18.00;51.70;;;;;;5062260;28;20563;-62
2021/05/14 12:42:30;;;;;;;30.20;2.75;;;18.10;52.20;;;;;;5062555;28;20032;-61
2021/05/14 12:44:58;;;;;;;30.45;3.22;;;18.20;52.20;;;;;;5063110;28;20603;-62